Time;durP1;ratioP1;P1;durP2;ratioP2;P2;SDS_P1;SDS_P2;PMS_P1;PMS_P2;Temp;Humidity;BMP_temperature;BMP_pressure;BME280_temperature;BME280_humidity;BME280_pressure;Samples;Min_cycle;Max_cycle;Signal;HPM_P1;HPM_P2
2023/05/05 00:01:14;;;;;;;48.33;29.52;;;;;;;;;;5134722;27;20418;-70
2023/05/05 00:03:41;;;;;;;40.60;27.35;;;;;;;;;;5134328;27;20031;-71
2023/05/05 00:06:08;;;;;;;39.45;26.25;;;;;;;;;;5134627;27;20415;-70
2023/05/05 00:08:34;;;;;;;35.10;25.13;;;;;;;;;;5134683;27;20023;-70
2023/05/05 00:11:01;;;;;;;39.17;28.27;;;;;;;;;;5134286;27;20072;-70
2023/05/05 00:13:28;;;;;;;43.35;26.98;;;;;;;;;;5134146;27;20034;-71
2023/05/05 00:15:54;;;;;;;47.55;31.17;;;;;;;;;;5134352;27;20472;-70
2023/05/05 00:18:21;;;;;;;46.33;33.30;;;;;;;;;;5134178;28;20072;-71
2023/05/05 00:20:48;;;;;;;79.90;49.63;;;;;;;;;;5134360;28;20030;-70
2023/05/05 00:23:15;;;;;;;44.13;30.85;;;;;;;;;;5134235;28;20027;-69
2023/05/05 00:25:42;;;;;;;66.03;41.83;;;;;;;;;;5134145;28;20038;-70
2023/05/05 00:28:09;;;;;;;49.22;33.05;;;;;;;;;;5134434;28;20027;-70
2023/05/05 00:30:36;;;;;;;46.80;30.02;;;;;;;;;;5136028;27;20092;-69
2023/05/05 00:33:02;;;;;;;47.55;29.15;;;;;;;;;;5138430;27;20030;-70
2023/05/05 00:35:29;;;;;;;36.85;23.83;;;;;;;;;;5138446;27;20026;-70
2023/05/05 00:37:56;;;;;;;50.58;30.02;;;;;;;;;;5138312;27;20026;-70
2023/05/05 00:40:23;;;;;;;41.75;28.98;;;;;;;;;;5138228;27;20039;-70
2023/05/05 00:42:50;;;;;;;49.33;29.23;;;;;;;;;;5138333;27;20379;-69
2023/05/05 00:45:17;;;;;;;42.20;28.25;;;;;;;;;;5138160;27;20042;-70
2023/05/05 00:47:46;;;;;;;55.10;32.00;;;;;;;;;;5138045;27;20043;-70
2023/05/05 00:50:17;;;;;;;38.92;27.33;;;;;;;;;;5138235;27;20023;-70
2023/05/05 00:52:44;;;;;;;43.97;30.20;;;;;;;;;;5138107;27;20027;-70
2023/05/05 00:55:11;;;;;;;38.88;29.35;;;;;;;;;;5137945;27;20248;-69
2023/05/05 00:57:37;;;;;;;39.08;28.70;;;;;;;;;;5137902;27;20022;-69
2023/05/05 01:00:04;;;;;;;45.17;32.00;;;;;;;;;;5137931;27;20015;-71
2023/05/05 01:02:31;;;;;;;50.75;31.95;;;;;;;;;;5137772;27;20476;-70
2023/05/05 01:04:58;;;;;;;47.15;33.72;;;;;;;;;;5138142;27;20031;-69
2023/05/05 01:07:34;;;;;;;43.97;31.25;;;;;;;;;;5137889;27;20019;-70
2023/05/05 01:10:06;;;;;;;46.63;31.67;;;;;;;;;;5137636;27;20076;-70
2023/05/05 01:12:45;;;;;;;63.17;42.55;;;;;;;;;;5137546;27;20034;-69
2023/05/05 01:15:31;;;;;;;65.18;41.88;;;;;;;;;;5129390;27;20016;-68
2023/05/05 01:17:59;;;;;;;55.28;39.95;;;;;;;;;;5099660;28;20426;-67
2023/05/05 01:20:45;;;;;;;54.92;37.90;;;;;;;;;;5106115;28;20049;-68
2023/05/05 01:23:18;;;;;;;58.75;37.95;;;;;;;;;;5098437;28;20028;-68
2023/05/05 01:26:04;;;;;;;62.42;42.95;;;;;;;;;;5105144;28;20028;-68
2023/05/05 01:28:32;;;;;;;63.28;40.40;;;;;;;;;;5106211;28;20026;-69
2023/05/05 01:31:00;;;;;;;53.92;37.05;;;;;;;;;;5104437;28;20020;-70
2023/05/05 01:33:29;;;;;;;109.72;57.20;;;;;;;;;;5105715;28;20069;-69
2023/05/05 01:35:57;;;;;;;67.65;39.03;;;;;;;;;;5106714;28;20016;-73
2023/05/05 01:38:28;;;;;;;59.40;39.80;;;;;;;;;;5104650;28;20031;-69
2023/05/05 01:41:07;;;;;;;57.83;35.55;;;;;;;;;;5110384;28;20475;-69
2023/05/05 01:43:35;;;;;;;59.80;40.58;;;;;;;;;;5117594;27;20059;-70
2023/05/05 01:46:01;;;;;;;46.10;30.63;;;;;;;;;;5119493;27;20054;-70
2023/05/05 01:48:29;;;;;;;47.85;31.23;;;;;;;;;;5116385;28;20047;-72
2023/05/05 01:50:57;;;;;;;47.33;32.78;;;;;;;;;;5118250;27;20472;-70
2023/05/05 01:53:24;;;;;;;54.67;39.33;;;;;;;;;;5127775;27;20034;-70
2023/05/05 01:55:51;;;;;;;46.58;31.77;;;;;;;;;;5136947;27;20045;-69
2023/05/05 01:58:17;;;;;;;41.03;29.45;;;;;;;;;;5136679;27;20099;-68
2023/05/05 02:00:44;;;;;;;113.03;70.35;;;;;;;;;;5136808;27;20375;-70
2023/05/05 02:03:13;;;;;;;47.33;33.13;;;;;;;;;;5136815;27;20106;-72
2023/05/05 02:05:40;;;;;;;86.45;51.90;;;;;;;;;;5136885;27;20023;-73
2023/05/05 02:08:08;;;;;;;50.35;34.17;;;;;;;;;;5138512;27;20023;-73
2023/05/05 02:10:36;;;;;;;61.33;43.85;;;;;;;;;;5137117;27;20027;-72
2023/05/05 02:13:03;;;;;;;37.67;26.42;;;;;;;;;;5136525;27;20024;-73
2023/05/05 02:15:30;;;;;;;53.22;35.10;;;;;;;;;;5136594;27;20064;-71
2023/05/05 02:17:58;;;;;;;45.50;26.83;;;;;;;;;;5136451;27;20053;-70
2023/05/05 02:20:27;;;;;;;38.30;26.13;;;;;;;;;;5136348;27;20015;-70
2023/05/05 02:22:53;;;;;;;41.38;29.63;;;;;;;;;;5136264;27;20073;-68
2023/05/05 02:25:20;;;;;;;54.55;33.28;;;;;;;;;;5128751;27;20472;-69
2023/05/05 02:27:48;;;;;;;43.55;30.90;;;;;;;;;;5121575;27;20031;-68
2023/05/05 02:30:15;;;;;;;38.42;26.23;;;;;;;;;;5115961;28;20103;-70
2023/05/05 02:32:44;;;;;;;34.45;24.83;;;;;;;;;;5115821;28;20020;-70
2023/05/05 02:35:14;;;;;;;39.33;26.70;;;;;;;;;;5115468;28;20020;-70
2023/05/05 02:37:43;;;;;;;29.67;24.75;;;;;;;;;;5115551;28;20026;-70
2023/05/05 02:40:11;;;;;;;34.63;24.40;;;;;;;;;;5115499;28;20012;-70
2023/05/05 02:42:39;;;;;;;32.72;22.98;;;;;;;;;;5115243;28;20099;-70
2023/05/05 02:45:24;;;;;;;48.47;29.70;;;;;;;;;;5115468;28;20027;-70
2023/05/05 02:47:51;;;;;;;34.03;24.30;;;;;;;;;;5118374;27;20039;-70
2023/05/05 02:50:18;;;;;;;36.20;23.73;;;;;;;;;;5126451;27;20047;-71
2023/05/05 02:52:45;;;;;;;34.80;23.10;;;;;;;;;;5115212;28;20059;-69
2023/05/05 02:55:12;;;;;;;29.30;23.17;;;;;;;;;;5115138;28;20020;-69
2023/05/05 02:57:47;;;;;;;35.60;23.65;;;;;;;;;;5115325;28;20027;-69
2023/05/05 03:00:18;;;;;;;40.97;26.75;;;;;;;;;;5115127;28;20072;-70
2023/05/05 03:03:05;;;;;;;41.42;27.70;;;;;;;;;;5115401;28;20149;-70
2023/05/05 03:05:44;;;;;;;35.45;24.05;;;;;;;;;;5114986;28;20036;-68
2023/05/05 03:08:26;;;;;;;34.90;23.30;;;;;;;;;;5120666;27;20038;-74
2023/05/05 03:10:58;;;;;;;54.95;42.08;;;;;;;;;;5130834;27;20023;-69
2023/05/05 03:13:25;;;;;;;;;;;;;;;;;;5115079;28;20028;-70
2023/05/05 03:15:52;;;;;;;115.13;77.60;;;;;;;;;;5114782;28;20278;-70
2023/05/05 03:18:20;;;;;;;38.47;25.80;;;;;;;;;;5114084;28;20015;-69
2023/05/05 03:20:47;;;;;;;32.28;23.10;;;;;;;;;;5114585;28;20376;-74
2023/05/05 03:23:17;;;;;;;32.97;23.27;;;;;;;;;;5114756;28;20030;-69
2023/05/05 03:25:43;;;;;;;59.38;44.95;;;;;;;;;;5114737;28;20106;-70
2023/05/05 03:28:10;;;;;;;78.47;54.10;;;;;;;;;;5114986;28;20076;-70
2023/05/05 03:30:37;;;;;;;37.35;28.73;;;;;;;;;;5115303;28;20230;-70
2023/05/05 03:33:03;;;;;;;29.90;24.67;;;;;;;;;;5115056;28;20019;-70
2023/05/05 03:35:30;;;;;;;32.80;24.95;;;;;;;;;;5114910;28;20384;-71
2023/05/05 03:37:56;;;;;;;36.75;26.63;;;;;;;;;;5125849;27;20058;-68
2023/05/05 03:40:23;;;;;;;32.35;26.02;;;;;;;;;;5124283;27;20039;-68
2023/05/05 03:42:50;;;;;;;40.72;27.52;;;;;;;;;;5114941;28;20020;-71
2023/05/05 03:45:16;;;;;;;37.05;27.15;;;;;;;;;;5127430;27;20023;-70
2023/05/05 03:47:43;;;;;;;36.20;26.10;;;;;;;;;;5150022;22;20058;-70
2023/05/05 03:50:10;;;;;;;40.35;26.25;;;;;;;;;;5135405;27;20023;-68
2023/05/05 03:52:37;;;;;;;37.25;28.73;;;;;;;;;;5134685;27;20476;-72
2023/05/05 03:55:03;;;;;;;40.88;30.25;;;;;;;;;;5131048;27;20030;-67
2023/05/05 03:57:31;;;;;;;34.33;26.95;;;;;;;;;;5128392;27;20099;-72
2023/05/05 03:59:58;;;;;;;42.97;31.88;;;;;;;;;;5128619;27;20015;-72
2023/05/05 04:02:25;;;;;;;39.55;29.88;;;;;;;;;;5134611;27;20106;-68
2023/05/05 04:04:51;;;;;;;40.38;29.17;;;;;;;;;;5134235;27;20103;-74
2023/05/05 04:07:18;;;;;;;39.58;27.95;;;;;;;;;;5134609;27;20445;-72
2023/05/05 04:09:45;;;;;;;38.17;29.73;;;;;;;;;;5134603;27;20038;-70
2023/05/05 04:12:12;;;;;;;32.70;27.42;;;;;;;;;;5134340;27;20022;-73
2023/05/05 04:14:38;;;;;;;54.33;39.78;;;;;;;;;;5134605;27;20022;-71
2023/05/05 04:17:05;;;;;;;59.47;45.28;;;;;;;;;;5134456;27;20022;-72
2023/05/05 04:19:32;;;;;;;41.25;30.58;;;;;;;;;;5124482;28;20533;-69
2023/05/05 04:21:59;;;;;;;37.55;29.08;;;;;;;;;;5114053;28;20110;-73
2023/05/05 04:24:26;;;;;;;53.13;36.53;;;;;;;;;;5113814;28;20027;-70
2023/05/05 04:26:53;;;;;;;37.45;26.95;;;;;;;;;;5113526;28;20028;-70
2023/05/05 04:29:19;;;;;;;35.15;26.58;;;;;;;;;;5114038;28;20042;-72
2023/05/05 04:31:46;;;;;;;38.95;28.38;;;;;;;;;;5113980;28;20044;-71
2023/05/05 04:34:13;;;;;;;35.58;25.58;;;;;;;;;;5124817;28;20019;-69
2023/05/05 04:36:40;;;;;;;31.40;24.00;;;;;;;;;;5133833;28;20106;-70
2023/05/05 04:39:07;;;;;;;40.22;28.33;;;;;;;;;;5127114;28;20022;-70
2023/05/05 04:41:34;;;;;;;39.45;27.73;;;;;;;;;;5118961;28;20052;-70
2023/05/05 04:44:01;;;;;;;31.83;24.25;;;;;;;;;;5113066;28;20027;-69
2023/05/05 04:46:27;;;;;;;30.02;24.83;;;;;;;;;;5113249;28;20020;-69
2023/05/05 04:48:54;;;;;;;32.35;23.40;;;;;;;;;;5111486;28;20037;-70
2023/05/05 04:51:21;;;;;;;35.22;24.92;;;;;;;;;;5111338;28;20027;-70
2023/05/05 04:53:47;;;;;;;33.97;25.20;;;;;;;;;;5111686;28;20008;-70
2023/05/05 04:56:14;;;;;;;31.58;24.38;;;;;;;;;;5109212;28;20022;-70
2023/05/05 04:58:41;;;;;;;33.42;21.88;;;;;;;;;;5110248;28;20429;-70
2023/05/05 05:01:07;;;;;;;47.63;30.27;;;;;;;;;;5110458;28;20063;-70
2023/05/05 05:03:35;;;;;;;34.72;25.60;;;;;;;;;;5110628;28;20028;-71
2023/05/05 05:06:01;;;;;;;40.55;26.65;;;;;;;;;;5111811;28;20077;-70
2023/05/05 05:08:28;;;;;;;39.88;28.20;;;;;;;;;;5112673;28;20020;-70
2023/05/05 05:10:55;;;;;;;36.88;26.80;;;;;;;;;;5112704;28;20085;-70
2023/05/05 05:13:21;;;;;;;32.42;25.15;;;;;;;;;;5113199;28;20024;-70
2023/05/05 05:15:48;;;;;;;33.85;25.05;;;;;;;;;;5113162;28;20022;-70
2023/05/05 05:18:15;;;;;;;25.67;21.88;;;;;;;;;;5115606;28;20380;-70
2023/05/05 05:20:42;;;;;;;30.42;24.75;;;;;;;;;;5116955;28;20028;-71
2023/05/05 05:23:09;;;;;;;32.25;21.90;;;;;;;;;;5116910;28;20019;-70
2023/05/05 05:25:35;;;;;;;34.08;24.17;;;;;;;;;;5116691;28;20106;-70
2023/05/05 05:28:02;;;;;;;32.28;24.83;;;;;;;;;;5116805;28;20062;-69
2023/05/05 05:30:29;;;;;;;33.75;24.90;;;;;;;;;;5116616;28;20024;-70
2023/05/05 05:32:55;;;;;;;35.33;27.70;;;;;;;;;;5116496;28;20066;-70
2023/05/05 05:35:22;;;;;;;37.97;28.77;;;;;;;;;;5116921;28;20030;-70
2023/05/05 05:37:50;;;;;;;36.00;26.73;;;;;;;;;;5116522;28;20076;-70
2023/05/05 05:40:17;;;;;;;34.30;26.95;;;;;;;;;;5116717;28;20023;-70
2023/05/05 05:42:43;;;;;;;36.00;28.83;;;;;;;;;;5116419;28;20035;-70
2023/05/05 05:45:10;;;;;;;34.90;29.08;;;;;;;;;;5116518;28;20528;-70
2023/05/05 05:47:37;;;;;;;53.25;41.70;;;;;;;;;;5116217;28;20055;-69
2023/05/05 05:50:04;;;;;;;35.15;28.17;;;;;;;;;;5116166;28;20039;-70
2023/05/05 05:52:30;;;;;;;41.78;31.20;;;;;;;;;;5116317;28;20020;-69
2023/05/05 05:54:57;;;;;;;39.22;31.88;;;;;;;;;;5116261;28;20020;-70
2023/05/05 05:57:23;;;;;;;40.65;31.33;;;;;;;;;;5115908;28;20016;-70
2023/05/05 05:59:50;;;;;;;43.42;32.42;;;;;;;;;;5116189;28;20353;-70
2023/05/05 06:02:17;;;;;;;41.70;30.77;;;;;;;;;;5116153;28;20032;-70
2023/05/05 06:04:44;;;;;;;39.22;30.73;;;;;;;;;;5115818;28;20436;-70
2023/05/05 06:07:11;;;;;;;36.05;30.33;;;;;;;;;;5116072;28;20469;-70
2023/05/05 06:09:37;;;;;;;34.50;29.67;;;;;;;;;;5115986;28;20058;-70
2023/05/05 06:12:04;;;;;;;39.22;31.67;;;;;;;;;;5115625;28;20019;-70
2023/05/05 06:14:30;;;;;;;38.03;32.20;;;;;;;;;;5115947;28;20042;-70
2023/05/05 06:16:57;;;;;;;41.05;33.55;;;;;;;;;;5115806;28;20023;-69
2023/05/05 06:19:24;;;;;;;39.08;33.13;;;;;;;;;;5115616;28;20035;-70
2023/05/05 06:21:50;;;;;;;43.05;32.80;;;;;;;;;;5115695;28;20020;-70
2023/05/05 06:24:17;;;;;;;37.45;31.38;;;;;;;;;;5115748;28;20492;-70
2023/05/05 06:26:44;;;;;;;39.80;31.65;;;;;;;;;;5115414;28;20541;-71
2023/05/05 06:29:10;;;;;;;36.83;30.25;;;;;;;;;;5115209;28;20022;-70
2023/05/05 06:31:37;;;;;;;41.05;33.35;;;;;;;;;;5115460;28;20403;-70
2023/05/05 06:34:03;;;;;;;38.45;30.25;;;;;;;;;;5115311;28;20028;-70
2023/05/05 06:36:31;;;;;;;40.80;32.50;;;;;;;;;;5115484;28;20016;-70
2023/05/05 06:38:57;;;;;;;39.78;32.10;;;;;;;;;;5115310;28;20020;-70
2023/05/05 06:41:24;;;;;;;44.55;33.05;;;;;;;;;;5115183;28;20020;-70
2023/05/05 06:43:50;;;;;;;36.95;31.33;;;;;;;;;;5115316;28;20020;-70
2023/05/05 06:46:17;;;;;;;39.67;32.00;;;;;;;;;;5115388;28;20098;-70
2023/05/05 06:48:44;;;;;;;39.58;32.53;;;;;;;;;;5114948;28;20040;-70
2023/05/05 06:51:10;;;;;;;38.47;32.45;;;;;;;;;;5115181;28;20019;-71
2023/05/05 06:53:37;;;;;;;41.83;31.92;;;;;;;;;;5115060;28;20039;-70
2023/05/05 06:56:04;;;;;;;46.50;32.83;;;;;;;;;;5114971;28;20058;-71
2023/05/05 06:58:30;;;;;;;42.47;33.10;;;;;;;;;;5115154;28;20019;-71
2023/05/05 07:00:57;;;;;;;39.22;32.55;;;;;;;;;;5114949;28;20376;-71
2023/05/05 07:03:24;;;;;;;41.20;32.75;;;;;;;;;;5114944;28;20023;-71
2023/05/05 07:05:52;;;;;;;38.30;32.28;;;;;;;;;;5115586;28;20061;-71
2023/05/05 07:08:19;;;;;;;40.42;31.65;;;;;;;;;;5114891;28;20121;-71
2023/05/05 07:10:46;;;;;;;41.85;31.52;;;;;;;;;;5114749;28;20047;-71
2023/05/05 07:13:12;;;;;;;38.63;32.63;;;;;;;;;;5114507;28;20027;-71
2023/05/05 07:15:45;;;;;;;50.05;34.08;;;;;;;;;;5114720;28;20024;-70
2023/05/05 07:18:15;;;;;;;39.22;32.03;;;;;;;;;;5114371;28;20047;-71
2023/05/05 07:20:41;;;;;;;36.95;31.13;;;;;;;;;;5114644;28;20015;-71
2023/05/05 07:23:08;;;;;;;41.15;32.72;;;;;;;;;;5114511;28;20019;-70
2023/05/05 07:25:35;;;;;;;38.20;32.25;;;;;;;;;;5114333;28;20027;-71
2023/05/05 07:28:02;;;;;;;40.17;32.13;;;;;;;;;;5114398;28;20046;-71
2023/05/05 07:30:28;;;;;;;42.03;33.80;;;;;;;;;;5114371;28;20039;-71
2023/05/05 07:32:55;;;;;;;37.92;31.52;;;;;;;;;;5114110;28;20048;-70
2023/05/05 07:35:22;;;;;;;38.22;31.67;;;;;;;;;;5114396;28;20473;-71
2023/05/05 07:37:49;;;;;;;42.92;34.00;;;;;;;;;;5114213;28;20438;-71
2023/05/05 07:40:16;;;;;;;43.85;34.13;;;;;;;;;;5113383;28;20020;-71
2023/05/05 07:42:43;;;;;;;45.85;33.35;;;;;;;;;;5114213;28;20047;-70
2023/05/05 07:45:09;;;;;;;40.55;31.48;;;;;;;;;;5114226;28;20522;-70
2023/05/05 07:47:36;;;;;;;41.97;33.00;;;;;;;;;;5113801;28;20479;-71
2023/05/05 07:50:03;;;;;;;43.10;33.10;;;;;;;;;;5113993;28;20499;-71
2023/05/05 07:52:29;;;;;;;51.50;38.40;;;;;;;;;;5114023;28;20027;-71
2023/05/05 07:54:56;;;;;;;44.35;35.15;;;;;;;;;;5114006;28;20016;-71
2023/05/05 07:57:23;;;;;;;67.32;41.80;;;;;;;;;;5113732;28;20019;-71
2023/05/05 07:59:49;;;;;;;44.10;36.08;;;;;;;;;;5113901;28;20015;-71
2023/05/05 08:02:16;;;;;;;45.42;36.90;;;;;;;;;;5113942;28;20062;-70
2023/05/05 08:04:43;;;;;;;51.35;36.92;;;;;;;;;;5129975;27;20041;-70
2023/05/05 08:07:10;;;;;;;127.88;60.22;;;;;;;;;;5127626;27;20103;-68
2023/05/05 08:09:37;;;;;;;49.42;38.53;;;;;;;;;;5122541;27;20551;-73
2023/05/05 08:12:04;;;;;;;50.03;36.85;;;;;;;;;;5113439;28;20362;-70
2023/05/05 08:14:31;;;;;;;48.38;37.40;;;;;;;;;;5113371;28;20022;-71
2023/05/05 08:16:57;;;;;;;44.60;36.63;;;;;;;;;;5113635;28;20024;-72
2023/05/05 08:19:24;;;;;;;46.85;36.63;;;;;;;;;;5113329;28;20012;-73
2023/05/05 08:21:51;;;;;;;42.13;34.40;;;;;;;;;;5113613;28;20028;-71
2023/05/05 08:24:17;;;;;;;59.33;49.30;;;;;;;;;;5113628;28;20028;-72
2023/05/05 08:26:44;;;;;;;50.42;38.67;;;;;;;;;;5113299;28;20384;-71
2023/05/05 08:29:11;;;;;;;46.13;38.33;;;;;;;;;;5113608;28;20465;-70
2023/05/05 08:31:37;;;;;;;49.78;37.75;;;;;;;;;;5113581;28;20023;-71
2023/05/05 08:34:05;;;;;;;46.47;37.70;;;;;;;;;;5113442;28;20023;-67
2023/05/05 08:36:32;;;;;;;56.83;44.70;;;;;;;;;;5113544;28;20024;-68
2023/05/05 08:38:59;;;;;;;50.50;40.28;;;;;;;;;;5115532;27;20027;-71
2023/05/05 08:41:26;;;;;;;49.38;39.33;;;;;;;;;;5132371;28;20120;-71
2023/05/05 08:43:52;;;;;;;44.38;38.53;;;;;;;;;;5133798;28;20440;-70
2023/05/05 08:46:19;;;;;;;52.67;40.58;;;;;;;;;;5134024;28;20425;-69
2023/05/05 08:48:48;;;;;;;52.03;41.53;;;;;;;;;;5133498;28;20423;-70
2023/05/05 08:51:18;;;;;;;51.38;40.70;;;;;;;;;;5135130;27;20098;-69
2023/05/05 08:53:54;;;;;;;47.83;39.40;;;;;;;;;;5138052;27;20023;-70
2023/05/05 08:56:21;;;;;;;51.83;41.35;;;;;;;;;;5138081;27;20042;-69
2023/05/05 08:58:48;;;;;;;49.80;41.05;;;;;;;;;;5138075;27;20042;-69
2023/05/05 09:01:15;;;;;;;61.58;45.10;;;;;;;;;;5137753;27;20487;-70
2023/05/05 09:03:42;;;;;;;55.47;45.38;;;;;;;;;;5137876;27;20506;-68
2023/05/05 09:06:08;;;;;;;52.38;44.47;;;;;;;;;;5137921;27;20026;-70
2023/05/05 09:08:37;;;;;;;48.30;41.65;;;;;;;;;;5137811;27;20053;-70
2023/05/05 09:11:03;;;;;;;58.00;43.70;;;;;;;;;;5137725;27;20023;-70
2023/05/05 09:13:31;;;;;;;75.32;54.67;;;;;;;;;;5137774;27;20051;-70
2023/05/05 09:15:59;;;;;;;57.13;42.63;;;;;;;;;;5137793;27;20515;-70
2023/05/05 09:18:26;;;;;;;51.92;44.50;;;;;;;;;;5137560;27;20019;-70
2023/05/05 09:20:52;;;;;;;75.40;60.50;;;;;;;;;;5137546;27;20148;-69
2023/05/05 09:23:19;;;;;;;52.92;45.45;;;;;;;;;;5137602;27;20465;-70
2023/05/05 09:25:47;;;;;;;71.10;57.65;;;;;;;;;;5137388;27;20027;-72
2023/05/05 09:28:15;;;;;;;54.60;43.10;;;;;;;;;;5137547;27;20027;-71
2023/05/05 09:30:43;;;;;;;117.28;48.20;;;;;;;;;;5137481;27;20019;-71
2023/05/05 09:33:10;;;;;;;66.95;49.75;;;;;;;;;;5137186;27;20068;-71
2023/05/05 09:35:56;;;;;;;92.22;52.47;;;;;;;;;;5137463;27;20023;-71
2023/05/05 09:38:24;;;;;;;57.88;46.97;;;;;;;;;;5137090;27;20019;-71
2023/05/05 09:40:52;;;;;;;56.65;48.45;;;;;;;;;;5137168;27;20023;-71
2023/05/05 09:43:20;;;;;;;67.55;46.38;;;;;;;;;;5137135;27;20023;-75
2023/05/05 09:45:48;;;;;;;71.03;50.15;;;;;;;;;;5136835;27;20075;-68
2023/05/05 09:48:35;;;;;;;66.50;48.50;;;;;;;;;;5136821;27;20043;-71
2023/05/05 09:51:01;;;;;;;75.88;55.47;;;;;;;;;;5138539;27;20046;-70
2023/05/05 09:53:37;;;;;;;71.15;52.63;;;;;;;;;;5137362;27;20100;-70
2023/05/05 09:56:04;;;;;;;119.55;80.18;;;;;;;;;;5136568;27;20518;-69
2023/05/05 09:58:31;;;;;;;100.53;77.38;;;;;;;;;;5149024;27;20023;-69
2023/05/05 10:00:58;;;;;;;200.05;144.90;;;;;;;;;;5139183;27;20095;-70
2023/05/05 10:03:25;;;;;;;170.93;125.00;;;;;;;;;;5128190;27;20081;-71
2023/05/05 10:05:52;;;;;;;137.38;91.93;;;;;;;;;;5128928;27;20225;-72
2023/05/05 10:08:21;;;;;;;118.05;83.45;;;;;;;;;;5129747;27;20016;-74
2023/05/05 10:10:59;;;;;;;105.80;82.85;;;;;;;;;;5121995;27;20024;-71
2023/05/05 10:13:27;;;;;;;140.52;95.70;;;;;;;;;;5126886;27;20024;-70
2023/05/05 10:15:54;;;;;;;110.30;81.93;;;;;;;;;;5125289;27;20061;-70
2023/05/05 10:18:22;;;;;;;116.57;77.15;;;;;;;;;;5126439;27;20023;-71
2023/05/05 10:20:56;;;;;;;98.75;71.22;;;;;;;;;;5126599;27;20018;-72
2023/05/05 10:23:23;;;;;;;113.07;82.45;;;;;;;;;;5126914;27;20012;-69
2023/05/05 10:25:53;;;;;;;110.70;73.43;;;;;;;;;;5125816;27;20589;-69
2023/05/05 10:28:28;;;;;;;128.40;84.00;;;;;;;;;;5127878;27;20035;-74
2023/05/05 10:30:56;;;;;;;118.43;74.95;;;;;;;;;;5124064;27;20499;-72
2023/05/05 10:33:26;;;;;;;140.75;84.43;;;;;;;;;;5131631;27;20032;-74
2023/05/05 10:35:55;;;;;;;148.35;79.18;;;;;;;;;;5126843;27;20026;-71
2023/05/05 10:38:22;;;;;;;158.13;105.57;;;;;;;;;;5124668;27;20068;-72
2023/05/05 10:40:49;;;;;;;130.00;95.50;;;;;;;;;;5124480;27;20048;-72
2023/05/05 10:43:16;;;;;;;155.60;97.57;;;;;;;;;;5126183;27;20030;-73
2023/05/05 10:45:42;;;;;;;225.80;115.50;;;;;;;;;;5124787;27;20023;-72
2023/05/05 10:48:11;;;;;;;145.77;98.80;;;;;;;;;;5124576;27;20107;-72
2023/05/05 10:50:44;;;;;;;128.07;89.25;;;;;;;;;;5126354;27;20016;-72
2023/05/05 10:53:30;;;;;;;143.23;103.53;;;;;;;;;;5125736;27;20047;-73
2023/05/05 10:56:17;;;;;;;180.25;128.70;;;;;;;;;;5077664;27;20037;-73
2023/05/05 10:58:43;;;;;;;161.82;113.38;;;;;;;;;;5125670;27;20022;-72
2023/05/05 11:01:10;;;;;;;148.65;103.53;;;;;;;;;;5125897;27;20065;-70
2023/05/05 11:03:37;;;;;;;130.23;90.85;;;;;;;;;;5124018;27;20022;-71
2023/05/05 11:06:03;;;;;;;118.65;81.45;;;;;;;;;;5125005;27;20383;-70
2023/05/05 11:08:32;;;;;;;159.27;104.28;;;;;;;;;;5125720;27;20015;-71
2023/05/05 11:10:59;;;;;;;228.75;141.30;;;;;;;;;;5123777;27;20076;-71
2023/05/05 11:13:26;;;;;;;222.20;132.48;;;;;;;;;;5135883;27;20027;-72
2023/05/05 11:15:53;;;;;;;277.25;166.82;;;;;;;;;;5144571;27;20068;-70
2023/05/05 11:18:42;;;;;;;263.52;170.90;;;;;;;;;;5127882;27;20349;-71
2023/05/05 11:21:15;;;;;;;276.13;155.88;;;;;;;;;;5131884;27;20038;-70
2023/05/05 11:23:43;;;;;;;181.85;108.38;;;;;;;;;;5127839;27;20019;-70
2023/05/05 11:26:10;;;;;;;135.43;86.95;;;;;;;;;;5125843;27;20019;-70
2023/05/05 11:28:57;;;;;;;123.82;83.78;;;;;;;;;;5126199;27;20016;-71
2023/05/05 11:31:24;;;;;;;125.07;84.30;;;;;;;;;;5091581;27;20446;-71
2023/05/05 11:33:51;;;;;;;236.07;129.80;;;;;;;;;;5125998;27;20020;-69
2023/05/05 11:36:19;;;;;;;171.32;106.85;;;;;;;;;;5124978;27;20011;-69
2023/05/05 11:38:47;;;;;;;271.05;140.63;;;;;;;;;;5128411;27;20025;-70
2023/05/05 11:41:14;;;;;;;205.88;114.65;;;;;;;;;;5131060;27;20015;-70
2023/05/05 11:43:41;;;;;;;132.77;89.22;;;;;;;;;;5127277;27;20030;-72
2023/05/05 11:46:16;;;;;;;207.18;116.53;;;;;;;;;;5124540;27;20098;-72
2023/05/05 11:48:52;;;;;;;438.10;220.27;;;;;;;;;;5128348;27;20483;-71
2023/05/05 11:51:20;;;;;;;438.42;230.63;;;;;;;;;;5127734;27;20532;-72
2023/05/05 11:53:48;;;;;;;308.80;187.68;;;;;;;;;;5126338;27;20063;-71
2023/05/05 11:56:18;;;;;;;178.35;120.47;;;;;;;;;;5127984;27;20011;-71
2023/05/05 11:58:46;;;;;;;171.88;118.10;;;;;;;;;;5128556;27;20014;-71
2023/05/05 12:01:13;;;;;;;88.38;58.50;;;;;;;;;;5128966;27;20026;-70
2023/05/05 12:03:40;;;;;;;64.90;40.60;;;;;;;;;;5123112;27;20022;-69
2023/05/05 12:06:07;;;;;;;65.63;44.75;;;;;;;;;;5128640;27;20023;-70
2023/05/05 12:08:36;;;;;;;63.20;40.00;;;;;;;;;;5126958;27;20106;-70
2023/05/05 12:11:10;;;;;;;53.40;33.70;;;;;;;;;;5125870;27;20055;-70
2023/05/05 12:13:37;;;;;;;28.73;20.58;;;;;;;;;;5126316;27;20487;-69
2023/05/05 12:16:09;;;;;;;23.50;18.48;;;;;;;;;;5128011;27;20106;-69
2023/05/05 12:18:35;;;;;;;32.08;19.13;;;;;;;;;;5127120;27;20007;-67
2023/05/05 12:21:02;;;;;;;34.53;24.88;;;;;;;;;;5129989;27;20023;-70
2023/05/05 12:23:29;;;;;;;31.50;19.45;;;;;;;;;;5128866;27;20016;-71
2023/05/05 12:25:55;;;;;;;38.28;22.25;;;;;;;;;;5125565;27;20024;-71
2023/05/05 12:28:22;;;;;;;33.58;20.75;;;;;;;;;;5134019;28;20135;-71
2023/05/05 12:30:58;;;;;;;212.80;178.68;;;;;;;;;;5133865;28;20023;-71
2023/05/05 12:33:25;;;;;;;68.70;49.10;;;;;;;;;;5133956;28;20064;-71
2023/05/05 12:35:52;;;;;;;30.73;21.23;;;;;;;;;;5134125;28;20098;-70
2023/05/05 12:38:18;;;;;;;33.72;22.00;;;;;;;;;;5133842;28;20360;-71
2023/05/05 12:40:46;;;;;;;27.98;20.33;;;;;;;;;;5134120;28;20020;-70
2023/05/05 12:43:33;;;;;;;28.33;20.50;;;;;;;;;;5133871;28;20126;-70
2023/05/05 12:45:59;;;;;;;28.45;20.90;;;;;;;;;;5100949;28;20084;-69
2023/05/05 12:48:26;;;;;;;33.97;23.02;;;;;;;;;;5133988;28;20039;-71
2023/05/05 12:50:53;;;;;;;26.63;20.88;;;;;;;;;;5133788;28;20480;-69
2023/05/05 12:53:22;;;;;;;33.38;25.63;;;;;;;;;;5133884;28;20031;-70
2023/05/05 12:55:50;;;;;;;30.08;23.45;;;;;;;;;;5133829;28;20491;-70
2023/05/05 12:58:16;;;;;;;37.30;24.65;;;;;;;;;;5133179;28;20034;-73
2023/05/05 13:00:43;;;;;;;37.53;27.85;;;;;;;;;;5132476;28;20023;-70
2023/05/05 13:03:19;;;;;;;44.08;30.35;;;;;;;;;;5132308;28;20042;-69
2023/05/05 13:05:46;;;;;;;38.13;27.50;;;;;;;;;;5132093;28;20027;-69
2023/05/05 13:08:13;;;;;;;42.03;27.15;;;;;;;;;;5131772;28;20037;-70
2023/05/05 13:10:56;;;;;;;44.35;32.30;;;;;;;;;;5132189;28;20019;-70
2023/05/05 13:13:22;;;;;;;68.13;46.25;;;;;;;;;;5126942;28;20057;-72
2023/05/05 13:15:49;;;;;;;63.85;45.45;;;;;;;;;;5123516;28;20019;-69
2023/05/05 13:18:16;;;;;;;53.40;37.42;;;;;;;;;;5116937;28;20024;-70
2023/05/05 13:20:42;;;;;;;42.53;32.47;;;;;;;;;;5120663;28;20030;-71
2023/05/05 13:23:09;;;;;;;43.60;32.50;;;;;;;;;;5112018;28;20024;-70
2023/05/05 13:25:36;;;;;;;44.92;30.63;;;;;;;;;;5112042;28;20020;-71
2023/05/05 13:28:02;;;;;;;40.75;29.50;;;;;;;;;;5116167;28;20480;-73
2023/05/05 13:30:29;;;;;;;38.05;28.40;;;;;;;;;;5119801;28;20473;-69
2023/05/05 13:32:55;;;;;;;42.85;31.05;;;;;;;;;;5111990;28;20038;-75
2023/05/05 13:35:22;;;;;;;42.17;32.13;;;;;;;;;;5093183;28;20488;-69
2023/05/05 13:37:49;;;;;;;43.65;31.77;;;;;;;;;;5112295;28;20369;-72
2023/05/05 13:40:15;;;;;;;39.78;29.38;;;;;;;;;;5115629;28;20345;-71
2023/05/05 13:42:42;;;;;;;43.47;31.42;;;;;;;;;;5115224;28;20047;-72
2023/05/05 13:45:11;;;;;;;36.05;27.73;;;;;;;;;;5115424;28;20031;-71
2023/05/05 13:47:37;;;;;;;39.22;27.83;;;;;;;;;;5115688;28;20028;-76
2023/05/05 13:50:05;;;;;;;36.85;28.00;;;;;;;;;;5116172;28;20034;-70
2023/05/05 13:52:31;;;;;;;40.35;28.45;;;;;;;;;;5122665;27;20027;-70
2023/05/05 13:54:58;;;;;;;47.72;27.63;;;;;;;;;;5132042;27;20429;-73
2023/05/05 13:57:25;;;;;;;33.13;26.02;;;;;;;;;;5126133;27;20268;-68
2023/05/05 13:59:51;;;;;;;38.67;27.67;;;;;;;;;;5127006;27;20250;-71
2023/05/05 14:02:18;;;;;;;34.65;26.52;;;;;;;;;;5127169;27;20018;-70
2023/05/05 14:04:45;;;;;;;40.58;28.02;;;;;;;;;;5136491;27;20051;-72
2023/05/05 14:07:11;;;;;;;41.65;26.75;;;;;;;;;;5136719;27;20038;-72
2023/05/05 14:09:38;;;;;;;43.78;31.55;;;;;;;;;;5135413;27;20027;-73
2023/05/05 14:12:05;;;;;;;60.78;44.20;;;;;;;;;;5134590;27;20106;-73
2023/05/05 14:14:31;;;;;;;43.50;33.83;;;;;;;;;;5136060;27;20020;-73
2023/05/05 14:16:58;;;;;;;74.15;53.88;;;;;;;;;;5134347;27;20546;-74
2023/05/05 14:19:24;;;;;;;43.95;34.08;;;;;;;;;;5126339;27;20038;-73